sensor_id;sensor_type;location;lat;lon;timestamp;pressure;altitude;pressure_sealevel;temperature;humidity
36454;BME280;22478;51.740;-1.314;2023-07-22T00:00:20;100104.44;;;12.12;86.03
36454;BME280;22478;51.740;-1.314;2023-07-22T00:02:47;100104.44;;;14.00;78.81
36454;BME280;22478;51.740;-1.314;2023-07-22T00:05:15;100108.51;;;13.95;80.15
36454;BME280;22478;51.740;-1.314;2023-07-22T00:07:41;100105.49;;;13.65;79.49
36454;BME280;22478;51.740;-1.314;2023-07-22T00:10:09;100095.75;;;14.58;73.91
36454;BME280;22478;51.740;-1.314;2023-07-22T00:12:36;100100.30;;;14.34;79.30
36454;BME280;22478;51.740;-1.314;2023-07-22T00:15:04;100104.02;;;12.91;82.50
36454;BME280;22478;51.740;-1.314;2023-07-22T00:17:31;100105.21;;;13.53;78.57
36454;BME280;22478;51.740;-1.314;2023-07-22T00:19:58;100102.20;;;13.36;77.59
36454;BME280;22478;51.740;-1.314;2023-07-22T00:22:25;100101.00;;;14.59;75.85
36454;BME280;22478;51.740;-1.314;2023-07-22T00:24:57;100102.22;;;14.56;78.01
36454;BME280;22478;51.740;-1.314;2023-07-22T00:27:24;100104.29;;;14.93;77.13
36454;BME280;22478;51.740;-1.314;2023-07-22T00:29:51;100097.48;;;12.91;79.26
36454;BME280;22478;51.740;-1.314;2023-07-22T00:32:19;100097.95;;;14.81;78.12
36454;BME280;22478;51.740;-1.314;2023-07-22T00:34:45;100094.51;;;14.24;81.80
36454;BME280;22478;51.740;-1.314;2023-07-22T00:37:12;100091.59;;;14.23;81.05
36454;BME280;22478;51.740;-1.314;2023-07-22T00:39:39;100088.21;;;14.36;79.23
36454;BME280;22478;51.740;-1.314;2023-07-22T00:42:06;100089.58;;;14.48;79.90
36454;BME280;22478;51.740;-1.314;2023-07-22T00:44:34;100089.81;;;14.11;82.73
36454;BME280;22478;51.740;-1.314;2023-07-22T00:47:01;100089.12;;;14.07;83.41
36454;BME280;22478;51.740;-1.314;2023-07-22T00:49:30;100084.33;;;15.48;82.31
36454;BME280;22478;51.740;-1.314;2023-07-22T00:52:01;100083.28;;;13.42;83.75
36454;BME280;22478;51.740;-1.314;2023-07-22T00:54:29;100083.40;;;13.15;86.32
36454;BME280;22478;51.740;-1.314;2023-07-22T00:56:57;100082.33;;;14.44;84.12
36454;BME280;22478;51.740;-1.314;2023-07-22T00:59:24;100077.48;;;14.04;85.24
36454;BME280;22478;51.740;-1.314;2023-07-22T01:01:52;100078.20;;;13.95;88.40
36454;BME280;22478;51.740;-1.314;2023-07-22T01:04:20;100074.53;;;14.03;86.26
36454;BME280;22478;51.740;-1.314;2023-07-22T01:06:49;100069.50;;;14.13;83.82
36454;BME280;22478;51.740;-1.314;2023-07-22T01:09:17;100065.50;;;13.21;88.57
36454;BME280;22478;51.740;-1.314;2023-07-22T01:11:44;100060.03;;;13.91;88.52
36454;BME280;22478;51.740;-1.314;2023-07-22T01:14:11;100054.78;;;14.98;85.45
36454;BME280;22478;51.740;-1.314;2023-07-22T01:16:39;100049.12;;;14.15;88.96
36454;BME280;22478;51.740;-1.314;2023-07-22T01:19:06;100044.99;;;14.00;90.29
36454;BME280;22478;51.740;-1.314;2023-07-22T01:21:34;100037.52;;;14.61;87.31
36454;BME280;22478;51.740;-1.314;2023-07-22T01:24:02;100040.74;;;13.80;91.54
36454;BME280;22478;51.740;-1.314;2023-07-22T01:26:34;100036.42;;;13.84;92.71
36454;BME280;22478;51.740;-1.314;2023-07-22T01:29:03;100034.97;;;13.08;94.23
36454;BME280;22478;51.740;-1.314;2023-07-22T01:31:35;100029.89;;;14.11;93.46
36454;BME280;22478;51.740;-1.314;2023-07-22T01:34:02;100027.70;;;14.00;93.93
36454;BME280;22478;51.740;-1.314;2023-07-22T01:36:29;100028.50;;;14.16;93.26
36454;BME280;22478;51.740;-1.314;2023-07-22T01:38:57;100027.42;;;14.22;95.77
36454;BME280;22478;51.740;-1.314;2023-07-22T01:41:24;100025.47;;;13.24;96.30
36454;BME280;22478;51.740;-1.314;2023-07-22T01:43:51;100023.57;;;13.45;95.95
36454;BME280;22478;51.740;-1.314;2023-07-22T01:46:18;100014.16;;;14.02;96.86
36454;BME280;22478;51.740;-1.314;2023-07-22T01:48:45;100007.71;;;14.51;96.28
36454;BME280;22478;51.740;-1.314;2023-07-22T01:51:12;100010.88;;;12.72;100.00
36454;BME280;22478;51.740;-1.314;2023-07-22T01:53:39;100013.01;;;13.18;100.00
36454;BME280;22478;51.740;-1.314;2023-07-22T01:56:06;100005.44;;;13.80;98.07
36454;BME280;22478;51.740;-1.314;2023-07-22T01:58:33;100008.26;;;13.07;100.00
36454;BME280;22478;51.740;-1.314;2023-07-22T02:01:01;100008.28;;;14.23;100.00
36454;BME280;22478;51.740;-1.314;2023-07-22T02:03:28;100011.87;;;13.65;100.00
36454;BME280;22478;51.740;-1.314;2023-07-22T02:06:01;100011.45;;;12.38;100.00
36454;BME280;22478;51.740;-1.314;2023-07-22T02:08:29;100007.08;;;13.92;100.00
36454;BME280;22478;51.740;-1.314;2023-07-22T02:11:01;100006.70;;;14.24;100.00
36454;BME280;22478;51.740;-1.314;2023-07-22T02:13:28;100003.86;;;13.54;100.00
36454;BME280;22478;51.740;-1.314;2023-07-22T02:15:55;100004.82;;;13.52;100.00
36454;BME280;22478;51.740;-1.314;2023-07-22T02:18:22;100003.89;;;13.57;100.00
36454;BME280;22478;51.740;-1.314;2023-07-22T02:20:49;99998.45;;;13.20;100.00
36454;BME280;22478;51.740;-1.314;2023-07-22T02:23:16;99996.37;;;12.53;100.00
36454;BME280;22478;51.740;-1.314;2023-07-22T02:25:43;99995.96;;;11.82;100.00
36454;BME280;22478;51.740;-1.314;2023-07-22T02:28:10;99991.34;;;11.68;100.00
36454;BME280;22478;51.740;-1.314;2023-07-22T02:30:37;99987.86;;;11.71;100.00
36454;BME280;22478;51.740;-1.314;2023-07-22T02:33:05;99986.87;;;12.54;100.00
36454;BME280;22478;51.740;-1.314;2023-07-22T02:35:33;99984.50;;;11.69;100.00
36454;BME280;22478;51.740;-1.314;2023-07-22T02:38:00;99981.86;;;12.88;100.00
36454;BME280;22478;51.740;-1.314;2023-07-22T02:40:27;99979.80;;;12.12;100.00
36454;BME280;22478;51.740;-1.314;2023-07-22T02:42:54;99975.61;;;12.64;100.00
36454;BME280;22478;51.740;-1.314;2023-07-22T02:45:21;99974.48;;;12.22;100.00
36454;BME280;22478;51.740;-1.314;2023-07-22T02:47:48;99979.37;;;10.70;100.00
36454;BME280;22478;51.740;-1.314;2023-07-22T02:50:15;99978.42;;;12.23;100.00
36454;BME280;22478;51.740;-1.314;2023-07-22T02:52:42;99978.63;;;12.87;100.00
36454;BME280;22478;51.740;-1.314;2023-07-22T02:55:10;99978.05;;;12.47;100.00
36454;BME280;22478;51.740;-1.314;2023-07-22T02:57:38;99974.22;;;12.15;100.00
36454;BME280;22478;51.740;-1.314;2023-07-22T03:00:07;99971.36;;;12.46;100.00
36454;BME280;22478;51.740;-1.314;2023-07-22T03:02:35;99973.20;;;11.67;100.00
36454;BME280;22478;51.740;-1.314;2023-07-22T03:05:03;99974.80;;;11.88;100.00
36454;BME280;22478;51.740;-1.314;2023-07-22T03:07:31;99974.21;;;13.12;100.00
36454;BME280;22478;51.740;-1.314;2023-07-22T03:09:58;99971.62;;;12.95;100.00
36454;BME280;22478;51.740;-1.314;2023-07-22T03:12:25;99967.46;;;13.37;100.00
36454;BME280;22478;51.740;-1.314;2023-07-22T03:14:52;99961.01;;;12.78;100.00
36454;BME280;22478;51.740;-1.314;2023-07-22T03:17:19;99961.43;;;11.89;100.00
36454;BME280;22478;51.740;-1.314;2023-07-22T03:19:47;99957.14;;;12.09;100.00
36454;BME280;22478;51.740;-1.314;2023-07-22T03:22:15;99953.99;;;12.23;100.00
36454;BME280;22478;51.740;-1.314;2023-07-22T03:24:43;99958.42;;;11.58;100.00
36454;BME280;22478;51.740;-1.314;2023-07-22T03:27:11;99953.95;;;12.09;100.00
36454;BME280;22478;51.740;-1.314;2023-07-22T03:29:38;99953.00;;;13.00;100.00
36454;BME280;22478;51.740;-1.314;2023-07-22T03:32:06;99952.04;;;13.93;100.00
36454;BME280;22478;51.740;-1.314;2023-07-22T03:34:35;99951.17;;;13.29;100.00
36454;BME280;22478;51.740;-1.314;2023-07-22T03:37:02;99948.15;;;12.17;100.00
36454;BME280;22478;51.740;-1.314;2023-07-22T03:39:29;99944.35;;;13.84;100.00
36454;BME280;22478;51.740;-1.314;2023-07-22T03:41:56;99946.43;;;12.73;100.00
36454;BME280;22478;51.740;-1.314;2023-07-22T03:44:23;99946.55;;;13.67;100.00
36454;BME280;22478;51.740;-1.314;2023-07-22T03:46:50;99947.89;;;13.32;100.00
36454;BME280;22478;51.740;-1.314;2023-07-22T03:49:17;99945.66;;;13.00;100.00
36454;BME280;22478;51.740;-1.314;2023-07-22T03:51:44;99946.20;;;12.99;100.00
36454;BME280;22478;51.740;-1.314;2023-07-22T03:54:11;99942.38;;;12.89;100.00
36454;BME280;22478;51.740;-1.314;2023-07-22T03:56:40;99937.02;;;13.69;100.00
36454;BME280;22478;51.740;-1.314;2023-07-22T03:59:08;99931.93;;;13.77;100.00
36454;BME280;22478;51.740;-1.314;2023-07-22T04:01:36;99930.42;;;13.07;100.00
36454;BME280;22478;51.740;-1.314;2023-07-22T04:04:03;99931.72;;;11.43;100.00
36454;BME280;22478;51.740;-1.314;2023-07-22T04:06:31;99931.36;;;11.89;100.00
36454;BME280;22478;51.740;-1.314;2023-07-22T04:08:58;99934.93;;;12.54;100.00
36454;BME280;22478;51.740;-1.314;2023-07-22T04:11:26;99932.43;;;11.54;100.00
36454;BME280;22478;51.740;-1.314;2023-07-22T04:13:53;99930.84;;;12.52;100.00
36454;BME280;22478;51.740;-1.314;2023-07-22T04:16:20;99933.83;;;12.08;100.00
36454;BME280;22478;51.740;-1.314;2023-07-22T04:18:47;99931.74;;;12.90;100.00
36454;BME280;22478;51.740;-1.314;2023-07-22T04:21:15;99936.80;;;10.89;100.00
36454;BME280;22478;51.740;-1.314;2023-07-22T04:23:42;99933.82;;;13.03;100.00
36454;BME280;22478;51.740;-1.314;2023-07-22T04:26:09;99936.55;;;11.90;100.00
36454;BME280;22478;51.740;-1.314;2023-07-22T04:28:36;99932.93;;;12.07;100.00
36454;BME280;22478;51.740;-1.314;2023-07-22T04:31:03;99932.52;;;12.69;100.00
36454;BME280;22478;51.740;-1.314;2023-07-22T04:33:30;99926.89;;;13.14;100.00
36454;BME280;22478;51.740;-1.314;2023-07-22T04:36:03;99919.53;;;13.10;100.00
36454;BME280;22478;51.740;-1.314;2023-07-22T04:38:31;99923.74;;;12.60;100.00
36454;BME280;22478;51.740;-1.314;2023-07-22T04:40:58;99925.27;;;12.32;100.00
36454;BME280;22478;51.740;-1.314;2023-07-22T04:43:25;99924.25;;;12.51;100.00
36454;BME280;22478;51.740;-1.314;2023-07-22T04:45:52;99926.22;;;12.60;100.00
36454;BME280;22478;51.740;-1.314;2023-07-22T04:48:21;99925.59;;;12.56;100.00
36454;BME280;22478;51.740;-1.314;2023-07-22T04:50:49;99920.76;;;13.09;100.00
36454;BME280;22478;51.740;-1.314;2023-07-22T04:53:16;99918.10;;;13.30;100.00
36454;BME280;22478;51.740;-1.314;2023-07-22T04:55:44;99915.04;;;13.29;100.00
36454;BME280;22478;51.740;-1.314;2023-07-22T04:58:11;99917.29;;;11.86;100.00
36454;BME280;22478;51.740;-1.314;2023-07-22T05:00:38;99913.57;;;10.88;100.00
36454;BME280;22478;51.740;-1.314;2023-07-22T05:03:05;99908.70;;;13.03;100.00
36454;BME280;22478;51.740;-1.314;2023-07-22T05:05:32;99906.77;;;11.87;100.00
36454;BME280;22478;51.740;-1.314;2023-07-22T05:08:00;99909.79;;;12.40;100.00
36454;BME280;22478;51.740;-1.314;2023-07-22T05:10:27;99913.37;;;12.64;100.00
36454;BME280;22478;51.740;-1.314;2023-07-22T05:12:54;99910.27;;;12.88;100.00
36454;BME280;22478;51.740;-1.314;2023-07-22T05:15:21;99906.77;;;13.38;100.00
36454;BME280;22478;51.740;-1.314;2023-07-22T05:17:48;99912.18;;;11.72;100.00
36454;BME280;22478;51.740;-1.314;2023-07-22T05:20:15;99908.80;;;13.43;100.00
36454;BME280;22478;51.740;-1.314;2023-07-22T05:22:42;99900.28;;;14.01;100.00
36454;BME280;22478;51.740;-1.314;2023-07-22T05:25:10;99898.57;;;12.97;100.00
36454;BME280;22478;51.740;-1.314;2023-07-22T05:27:37;99895.28;;;13.63;100.00
36454;BME280;22478;51.740;-1.314;2023-07-22T05:30:05;99894.64;;;13.89;100.00
36454;BME280;22478;51.740;-1.314;2023-07-22T05:32:33;99893.69;;;13.65;100.00
36454;BME280;22478;51.740;-1.314;2023-07-22T05:35:01;99892.39;;;12.71;100.00
36454;BME280;22478;51.740;-1.314;2023-07-22T05:37:28;99887.59;;;13.80;100.00
36454;BME280;22478;51.740;-1.314;2023-07-22T05:39:55;99887.03;;;12.37;100.00
36454;BME280;22478;51.740;-1.314;2023-07-22T05:42:22;99880.52;;;12.97;100.00
36454;BME280;22478;51.740;-1.314;2023-07-22T05:44:50;99877.48;;;12.77;100.00
36454;BME280;22478;51.740;-1.314;2023-07-22T05:47:17;99875.07;;;12.84;100.00
36454;BME280;22478;51.740;-1.314;2023-07-22T05:49:44;99877.10;;;11.15;100.00
36454;BME280;22478;51.740;-1.314;2023-07-22T05:52:11;99874.08;;;11.30;100.00
36454;BME280;22478;51.740;-1.314;2023-07-22T05:54:38;99873.22;;;12.26;100.00
36454;BME280;22478;51.740;-1.314;2023-07-22T05:57:06;99872.05;;;11.74;100.00
36454;BME280;22478;51.740;-1.314;2023-07-22T05:59:33;99862.48;;;12.73;100.00
36454;BME280;22478;51.740;-1.314;2023-07-22T06:02:00;99864.18;;;12.81;100.00
36454;BME280;22478;51.740;-1.314;2023-07-22T06:04:27;99869.20;;;12.21;100.00
36454;BME280;22478;51.740;-1.314;2023-07-22T06:06:54;99872.84;;;12.39;100.00
36454;BME280;22478;51.740;-1.314;2023-07-22T06:09:21;99869.55;;;11.91;100.00
36454;BME280;22478;51.740;-1.314;2023-07-22T06:11:48;99862.64;;;13.43;100.00
36454;BME280;22478;51.740;-1.314;2023-07-22T06:14:15;99865.08;;;12.16;100.00
36454;BME280;22478;51.740;-1.314;2023-07-22T06:16:42;99858.82;;;12.54;100.00
36454;BME280;22478;51.740;-1.314;2023-07-22T06:19:09;99855.84;;;12.29;100.00
36454;BME280;22478;51.740;-1.314;2023-07-22T06:21:36;99850.73;;;13.42;100.00
36454;BME280;22478;51.740;-1.314;2023-07-22T06:24:04;99849.47;;;12.45;100.00
36454;BME280;22478;51.740;-1.314;2023-07-22T06:26:31;99845.75;;;12.21;100.00
36454;BME280;22478;51.740;-1.314;2023-07-22T06:29:03;99850.40;;;11.24;100.00
36454;BME280;22478;51.740;-1.314;2023-07-22T06:31:30;99838.52;;;12.62;100.00
36454;BME280;22478;51.740;-1.314;2023-07-22T06:33:57;99836.78;;;14.00;100.00
36454;BME280;22478;51.740;-1.314;2023-07-22T06:36:25;99837.57;;;13.58;100.00
36454;BME280;22478;51.740;-1.314;2023-07-22T06:38:52;99839.62;;;13.14;100.00
36454;BME280;22478;51.740;-1.314;2023-07-22T06:41:19;99838.97;;;13.89;100.00
36454;BME280;22478;51.740;-1.314;2023-07-22T06:43:46;99834.78;;;14.69;98.74
36454;BME280;22478;51.740;-1.314;2023-07-22T06:46:13;99838.94;;;13.89;100.00
36454;BME280;22478;51.740;-1.314;2023-07-22T06:48:40;99837.49;;;14.74;100.00
36454;BME280;22478;51.740;-1.314;2023-07-22T06:51:07;99842.17;;;10.73;100.00
36454;BME280;22478;51.740;-1.314;2023-07-22T06:53:34;99836.03;;;12.62;100.00
36454;BME280;22478;51.740;-1.314;2023-07-22T06:56:01;99828.46;;;13.21;100.00
36454;BME280;22478;51.740;-1.314;2023-07-22T06:58:28;99826.65;;;13.59;100.00
36454;BME280;22478;51.740;-1.314;2023-07-22T07:00:55;99827.24;;;12.99;100.00
36454;BME280;22478;51.740;-1.314;2023-07-22T07:03:23;99827.44;;;13.10;100.00
36454;BME280;22478;51.740;-1.314;2023-07-22T07:05:53;99825.08;;;13.41;100.00
36454;BME280;22478;51.740;-1.314;2023-07-22T07:08:20;99826.96;;;12.39;100.00
36454;BME280;22478;51.740;-1.314;2023-07-22T07:10:48;99822.94;;;12.35;100.00
36454;BME280;22478;51.740;-1.314;2023-07-22T07:13:16;99823.52;;;13.47;100.00
36454;BME280;22478;51.740;-1.314;2023-07-22T07:15:47;99828.83;;;12.83;100.00
36454;BME280;22478;51.740;-1.314;2023-07-22T07:18:14;99822.52;;;12.33;100.00
36454;BME280;22478;51.740;-1.314;2023-07-22T07:20:42;99827.30;;;13.40;100.00
36454;BME280;22478;51.740;-1.314;2023-07-22T07:23:09;99823.55;;;13.06;100.00
36454;BME280;22478;51.740;-1.314;2023-07-22T07:25:37;99825.71;;;14.38;100.00
36454;BME280;22478;51.740;-1.314;2023-07-22T07:28:04;99824.40;;;13.94;100.00
36454;BME280;22478;51.740;-1.314;2023-07-22T07:30:32;99821.57;;;12.98;100.00
36454;BME280;22478;51.740;-1.314;2023-07-22T07:32:59;99818.73;;;13.43;100.00
36454;BME280;22478;51.740;-1.314;2023-07-22T07:35:26;99816.59;;;13.21;100.00
36454;BME280;22478;51.740;-1.314;2023-07-22T07:37:53;99812.68;;;13.98;100.00
36454;BME280;22478;51.740;-1.314;2023-07-22T07:40:20;99810.30;;;13.87;100.00
36454;BME280;22478;51.740;-1.314;2023-07-22T07:42:47;99810.11;;;14.36;100.00
36454;BME280;22478;51.740;-1.314;2023-07-22T07:45:14;99807.12;;;14.02;100.00
36454;BME280;22478;51.740;-1.314;2023-07-22T07:47:41;99804.88;;;12.80;100.00
36454;BME280;22478;51.740;-1.314;2023-07-22T07:50:09;99805.60;;;13.79;100.00
36454;BME280;22478;51.740;-1.314;2023-07-22T07:52:36;99808.68;;;13.36;100.00
36454;BME280;22478;51.740;-1.314;2023-07-22T07:55:04;99817.00;;;11.80;100.00
36454;BME280;22478;51.740;-1.314;2023-07-22T07:57:32;99816.98;;;12.57;100.00
36454;BME280;22478;51.740;-1.314;2023-07-22T07:59:59;99813.35;;;13.61;100.00
36454;BME280;22478;51.740;-1.314;2023-07-22T08:02:26;99815.60;;;13.02;100.00
36454;BME280;22478;51.740;-1.314;2023-07-22T08:04:52;99810.22;;;14.21;100.00
36454;BME280;22478;51.740;-1.314;2023-07-22T08:07:20;99806.25;;;12.44;100.00
36454;BME280;22478;51.740;-1.314;2023-07-22T08:09:46;99811.34;;;12.96;100.00
36454;BME280;22478;51.740;-1.314;2023-07-22T08:12:14;99806.22;;;14.37;100.00
36454;BME280;22478;51.740;-1.314;2023-07-22T08:14:42;99805.73;;;11.81;100.00
36454;BME280;22478;51.740;-1.314;2023-07-22T08:17:09;99800.16;;;13.35;100.00
36454;BME280;22478;51.740;-1.314;2023-07-22T08:19:36;99801.92;;;13.16;100.00
36454;BME280;22478;51.740;-1.314;2023-07-22T08:22:04;99805.27;;;12.70;100.00
36454;BME280;22478;51.740;-1.314;2023-07-22T08:24:31;99804.44;;;13.16;100.00
36454;BME280;22478;51.740;-1.314;2023-07-22T08:26:59;99799.56;;;15.11;100.00
36454;BME280;22478;51.740;-1.314;2023-07-22T08:29:26;99789.95;;;13.74;100.00
36454;BME280;22478;51.740;-1.314;2023-07-22T08:31:53;99788.09;;;13.34;100.00
36454;BME280;22478;51.740;-1.314;2023-07-22T08:34:19;99792.80;;;13.68;100.00
36454;BME280;22478;51.740;-1.314;2023-07-22T08:36:47;99788.47;;;13.35;100.00
36454;BME280;22478;51.740;-1.314;2023-07-22T08:39:13;99786.93;;;13.84;100.00
36454;BME280;22478;51.740;-1.314;2023-07-22T08:41:43;99789.52;;;13.40;100.00
36454;BME280;22478;51.740;-1.314;2023-07-22T08:44:17;99785.64;;;12.47;100.00
36454;BME280;22478;51.740;-1.314;2023-07-22T08:46:46;99784.77;;;13.00;100.00
36454;BME280;22478;51.740;-1.314;2023-07-22T08:49:15;99781.39;;;12.69;100.00
36454;BME280;22478;51.740;-1.314;2023-07-22T08:51:44;99779.02;;;11.60;100.00
36454;BME280;22478;51.740;-1.314;2023-07-22T08:54:18;99774.80;;;13.25;100.00
36454;BME280;22478;51.740;-1.314;2023-07-22T08:56:46;99771.81;;;13.70;100.00
36454;BME280;22478;51.740;-1.314;2023-07-22T08:59:14;99769.44;;;13.47;100.00
36454;BME280;22478;51.740;-1.314;2023-07-22T09:01:42;99767.63;;;13.40;100.00
36454;BME280;22478;51.740;-1.314;2023-07-22T09:04:13;99770.10;;;12.13;100.00
36454;BME280;22478;51.740;-1.314;2023-07-22T09:06:42;99766.52;;;13.12;100.00
36454;BME280;22478;51.740;-1.314;2023-07-22T09:09:10;99764.96;;;13.68;100.00
36454;BME280;22478;51.740;-1.314;2023-07-22T09:11:38;99764.48;;;12.34;100.00
36454;BME280;22478;51.740;-1.314;2023-07-22T09:14:05;99765.37;;;13.24;100.00
36454;BME280;22478;51.740;-1.314;2023-07-22T09:16:35;99763.87;;;12.65;100.00
36454;BME280;22478;51.740;-1.314;2023-07-22T09:19:04;99768.11;;;13.13;100.00
36454;BME280;22478;51.740;-1.314;2023-07-22T09:21:31;99761.42;;;13.22;100.00
36454;BME280;22478;51.740;-1.314;2023-07-22T09:23:59;99760.25;;;11.95;100.00
36454;BME280;22478;51.740;-1.314;2023-07-22T09:26:26;99760.27;;;12.34;100.00
36454;BME280;22478;51.740;-1.314;2023-07-22T09:28:55;99762.15;;;12.14;100.00
36454;BME280;22478;51.740;-1.314;2023-07-22T09:31:26;99766.67;;;11.76;100.00
36454;BME280;22478;51.740;-1.314;2023-07-22T09:33:56;99765.11;;;11.52;100.00
36454;BME280;22478;51.740;-1.314;2023-07-22T09:36:49;99765.16;;;12.14;100.00
36454;BME280;22478;51.740;-1.314;2023-07-22T09:39:16;99762.55;;;12.06;100.00
36454;BME280;22478;51.740;-1.314;2023-07-22T09:41:43;99766.28;;;13.22;100.00
36454;BME280;22478;51.740;-1.314;2023-07-22T09:44:10;99755.85;;;15.08;100.00
36454;BME280;22478;51.740;-1.314;2023-07-22T09:46:37;99757.46;;;13.81;100.00
36454;BME280;22478;51.740;-1.314;2023-07-22T09:49:07;99754.69;;;13.88;100.00
36454;BME280;22478;51.740;-1.314;2023-07-22T09:51:36;99756.37;;;13.34;100.00
36454;BME280;22478;51.740;-1.314;2023-07-22T09:54:05;99758.83;;;12.37;100.00
36454;BME280;22478;51.740;-1.314;2023-07-22T09:56:45;99755.96;;;12.85;100.00
36454;BME280;22478;51.740;-1.314;2023-07-22T09:59:13;99756.69;;;11.67;100.00
36454;BME280;22478;51.740;-1.314;2023-07-22T10:01:41;99757.08;;;13.25;100.00
36454;BME280;22478;51.740;-1.314;2023-07-22T10:04:10;99753.34;;;12.93;100.00
36454;BME280;22478;51.740;-1.314;2023-07-22T10:06:39;99755.89;;;13.98;100.00
36454;BME280;22478;51.740;-1.314;2023-07-22T10:09:08;99754.66;;;13.79;100.00
36454;BME280;22478;51.740;-1.314;2023-07-22T10:11:36;99755.79;;;12.67;100.00
36454;BME280;22478;51.740;-1.314;2023-07-22T10:14:04;99758.52;;;12.23;100.00
36454;BME280;22478;51.740;-1.314;2023-07-22T10:16:32;99759.98;;;13.67;100.00
36454;BME280;22478;51.740;-1.314;2023-07-22T10:19:00;99757.97;;;14.50;100.00
36454;BME280;22478;51.740;-1.314;2023-07-22T10:21:29;99767.83;;;13.61;100.00
36454;BME280;22478;51.740;-1.314;2023-07-22T10:23:56;99763.01;;;14.31;100.00
36454;BME280;22478;51.740;-1.314;2023-07-22T10:26:24;99761.88;;;11.67;100.00
36454;BME280;22478;51.740;-1.314;2023-07-22T10:28:53;99762.51;;;12.50;100.00
36454;BME280;22478;51.740;-1.314;2023-07-22T10:31:23;99761.64;;;13.08;100.00
36454;BME280;22478;51.740;-1.314;2023-07-22T10:33:49;99762.70;;;12.61;100.00
36454;BME280;22478;51.740;-1.314;2023-07-22T10:36:17;99763.17;;;12.84;100.00
36454;BME280;22478;51.740;-1.314;2023-07-22T10:38:55;99764.44;;;11.07;100.00
36454;BME280;22478;51.740;-1.314;2023-07-22T10:41:23;99765.78;;;11.21;100.00
36454;BME280;22478;51.740;-1.314;2023-07-22T10:43:55;99756.61;;;11.54;100.00
36454;BME280;22478;51.740;-1.314;2023-07-22T10:46:32;99759.53;;;10.56;100.00
36454;BME280;22478;51.740;-1.314;2023-07-22T10:49:10;99755.55;;;11.83;100.00
36454;BME280;22478;51.740;-1.314;2023-07-22T10:51:38;99750.72;;;11.74;100.00
36454;BME280;22478;51.740;-1.314;2023-07-22T10:54:12;99747.18;;;12.75;100.00
36454;BME280;22478;51.740;-1.314;2023-07-22T10:56:42;99746.75;;;11.49;100.00
36454;BME280;22478;51.740;-1.314;2023-07-22T10:59:10;99740.45;;;12.67;100.00
36454;BME280;22478;51.740;-1.314;2023-07-22T11:01:39;99740.62;;;11.57;100.00
36454;BME280;22478;51.740;-1.314;2023-07-22T11:04:10;99735.04;;;10.51;100.00
36454;BME280;22478;51.740;-1.314;2023-07-22T11:06:38;99732.04;;;10.66;100.00
36454;BME280;22478;51.740;-1.314;2023-07-22T11:09:06;99727.27;;;11.27;100.00
36454;BME280;22478;51.740;-1.314;2023-07-22T11:11:36;99721.32;;;10.69;100.00
36454;BME280;22478;51.740;-1.314;2023-07-22T11:14:21;99722.33;;;11.35;100.00
36454;BME280;22478;51.740;-1.314;2023-07-22T11:16:48;99715.16;;;11.64;100.00
36454;BME280;22478;51.740;-1.314;2023-07-22T11:19:17;99705.22;;;12.48;100.00
36454;BME280;22478;51.740;-1.314;2023-07-22T11:21:45;99703.43;;;12.74;100.00
36454;BME280;22478;51.740;-1.314;2023-07-22T11:24:13;99701.65;;;12.35;100.00
36454;BME280;22478;51.740;-1.314;2023-07-22T11:26:41;99700.09;;;11.78;100.00
36454;BME280;22478;51.740;-1.314;2023-07-22T11:29:09;99697.43;;;11.36;100.00
36454;BME280;22478;51.740;-1.314;2023-07-22T11:31:38;99696.69;;;11.64;100.00
36454;BME280;22478;51.740;-1.314;2023-07-22T11:34:06;99689.49;;;12.17;100.00
36454;BME280;22478;51.740;-1.314;2023-07-22T11:36:33;99682.96;;;11.93;100.00
36454;BME280;22478;51.740;-1.314;2023-07-22T11:39:03;99679.97;;;11.19;100.00
36454;BME280;22478;51.740;-1.314;2023-07-22T11:41:31;99680.62;;;10.87;100.00
36454;BME280;22478;51.740;-1.314;2023-07-22T11:43:59;99677.72;;;11.54;100.00
36454;BME280;22478;51.740;-1.314;2023-07-22T11:46:27;99676.49;;;11.01;100.00
36454;BME280;22478;51.740;-1.314;2023-07-22T11:48:56;99672.85;;;10.71;100.00
36454;BME280;22478;51.740;-1.314;2023-07-22T11:51:24;99669.92;;;11.58;100.00
36454;BME280;22478;51.740;-1.314;2023-07-22T11:53:54;99662.18;;;11.65;100.00
36454;BME280;22478;51.740;-1.314;2023-07-22T11:56:22;99660.28;;;11.60;100.00
36454;BME280;22478;51.740;-1.314;2023-07-22T11:58:51;99663.37;;;11.15;100.00
36454;BME280;22478;51.740;-1.314;2023-07-22T12:01:19;99664.61;;;11.22;100.00
36454;BME280;22478;51.740;-1.314;2023-07-22T12:03:46;99653.57;;;10.49;100.00
36454;BME280;22478;51.740;-1.314;2023-07-22T12:06:15;99654.82;;;10.73;100.00
36454;BME280;22478;51.740;-1.314;2023-07-22T12:08:45;99649.15;;;11.04;100.00
36454;BME280;22478;51.740;-1.314;2023-07-22T12:11:17;99641.03;;;11.18;100.00
36454;BME280;22478;51.740;-1.314;2023-07-22T12:13:44;99642.09;;;11.50;100.00
36454;BME280;22478;51.740;-1.314;2023-07-22T12:16:12;99638.68;;;11.03;100.00
36454;BME280;22478;51.740;-1.314;2023-07-22T12:18:42;99640.47;;;10.84;100.00
36454;BME280;22478;51.740;-1.314;2023-07-22T12:21:09;99639.90;;;9.46;100.00
36454;BME280;22478;51.740;-1.314;2023-07-22T12:23:42;99635.78;;;10.94;100.00
36454;BME280;22478;51.740;-1.314;2023-07-22T12:26:09;99633.99;;;9.36;100.00
36454;BME280;22478;51.740;-1.314;2023-07-22T12:28:37;99620.06;;;10.43;100.00
36454;BME280;22478;51.740;-1.314;2023-07-22T12:31:04;99615.32;;;9.91;100.00
36454;BME280;22478;51.740;-1.314;2023-07-22T12:33:31;99615.96;;;10.53;100.00
36454;BME280;22478;51.740;-1.314;2023-07-22T12:35:58;99610.93;;;10.42;100.00
36454;BME280;22478;51.740;-1.314;2023-07-22T12:38:25;99621.49;;;8.41;100.00
36454;BME280;22478;51.740;-1.314;2023-07-22T12:40:53;99610.87;;;10.10;100.00
36454;BME280;22478;51.740;-1.314;2023-07-22T12:43:20;99604.66;;;10.63;100.00